Allendale, Michigan
Current Conditions -  °F | °C
As of 1:53 PM on Tuesday 21 Oct 2014 (Local Time) from KBIV Reporting Station
Overcast Overcast  
Wind Chill: 50°   Ceiling: 2500
Heat Index: 50°   Visibility: 10mi
Dew Point: 39°   Wind: 6mph
Humidity: 66%   Direction: 20°NNE
Pressure: 30.15"   Gusts: NA
Location:  42.97°N, 85.95°W
Report Text: KBIV 211753Z AUTO 02005KT 10SM OVC025 10/04 A3015 RMK AO2 SLP214 T01000039 10111 20094 51014
Loading
Personal Weather Stations






























Interactive Weather Map
Tropical Storm Tracking
New forecast layout! Learn more

10-Day Weather Forecast

Advertisements
Track Severe Weather on mobile